Time;durP1;ratioP1;P1;durP2;ratioP2;P2;SDS_P1;SDS_P2;PMS_P1;PMS_P2;Temp;Humidity;BMP_temperature;BMP_pressure;BME280_temperature;BME280_humidity;BME280_pressure;Samples;Min_cycle;Max_cycle;Signal;HPM_P1;HPM_P2
2023/04/01 00:01:17;;;;;;;4.18;0.80;;;;;;;;;;5055852;28;20060;-86
2023/04/01 00:03:44;;;;;;;;;;;;;;;;;;5039807;28;20050;-85
2023/04/01 00:06:13;;;;;;;4.93;0.65;;;;;;;;;;5030640;28;19996;-87
2023/04/01 00:08:41;;;;;;;2.63;0.88;;;;;;;;;;5050796;28;20068;-86
2023/04/01 00:11:08;;;;;;;2.47;0.70;;;;;;;;;;5030954;28;20050;-84
2023/04/01 00:13:35;;;;;;;3.05;1.00;;;;;;;;;;5030945;28;20046;-86
2023/04/01 00:16:04;;;;;;;3.80;0.90;;;;;;;;;;5032562;28;21035;-85
2023/04/01 00:18:47;;;;;;;;;;;;;;;;;;5030780;28;20057;-85
2023/04/01 00:21:14;;;;;;;5.10;1.40;;;;;;;;;;5028397;28;20374;-86
2023/04/01 00:23:42;;;;;;;5.10;1.15;;;;;;;;;;5028637;28;20046;-86
2023/04/01 00:26:09;;;;;;;2.45;0.77;;;;;;;;;;5029814;28;20072;-85
2023/04/01 00:28:36;;;;;;;4.03;1.08;;;;;;;;;;5049867;28;20069;-84
2023/04/01 00:31:05;;;;;;;2.92;1.00;;;;;;;;;;5031255;28;20045;-86
2023/04/01 00:33:32;;;;;;;3.47;1.05;;;;;;;;;;5029876;28;20057;-87
2023/04/01 00:36:13;;;;;;;4.45;1.20;;;;;;;;;;5033860;28;20053;-85
2023/04/01 00:38:42;;;;;;;7.05;1.20;;;;;;;;;;5029867;28;20079;-85
2023/04/01 00:41:15;;;;;;;3.05;1.23;;;;;;;;;;5029118;28;20050;-85
2023/04/01 00:43:44;;;;;;;4.25;0.90;;;;;;;;;;5031114;28;20053;-86
2023/04/01 00:46:12;;;;;;;2.75;0.80;;;;;;;;;;5029750;28;20041;-85
2023/04/01 00:48:42;;;;;;;1.77;0.50;;;;;;;;;;5049055;28;20046;-85
2023/04/01 00:51:15;;;;;;;3.70;1.23;;;;;;;;;;5031350;28;20068;-86
2023/04/01 00:53:44;;;;;;;3.05;0.95;;;;;;;;;;5030175;28;20045;-86
2023/04/01 00:56:14;;;;;;;3.63;1.10;;;;;;;;;;5029303;28;20049;-86
2023/04/01 00:58:47;;;;;;;1.92;0.80;;;;;;;;;;5030572;28;20057;-86
2023/04/01 01:01:14;;;;;;;2.97;0.90;;;;;;;;;;5028880;28;20053;-84
2023/04/01 01:03:42;;;;;;;2.65;0.88;;;;;;;;;;5024812;28;20049;-85
2023/04/01 01:06:28;;;;;;;3.22;0.85;;;;;;;;;;5020748;28;20081;-84
2023/04/01 01:09:07;;;;;;;0.70;0.70;;;;;;;;;;5022168;28;20069;-85
2023/04/01 01:11:37;;;;;;;2.63;0.82;;;;;;;;;;5025089;28;20483;-84
2023/04/01 01:14:19;;;;;;;3.70;0.80;;;;;;;;;;5019343;28;20107;-85
2023/04/01 01:16:51;;;;;;;1.45;0.63;;;;;;;;;;5022882;28;20073;-85
2023/04/01 01:19:39;;;;;;;3.10;0.98;;;;;;;;;;5020155;28;20049;-85
2023/04/01 01:22:15;;;;;;;3.80;0.95;;;;;;;;;;5018812;28;20084;-85
2023/04/01 01:24:49;;;;;;;1.65;0.70;;;;;;;;;;5018783;28;20088;-85
2023/04/01 01:27:18;;;;;;;3.08;0.68;;;;;;;;;;5017521;28;20085;-86
2023/04/01 01:29:48;;;;;;;1.10;0.50;;;;;;;;;;5024100;28;20132;-85
2023/04/01 01:32:22;;;;;;;3.50;0.68;;;;;;;;;;5025965;28;20056;-84
2023/04/01 01:35:09;;;;;;;0.95;0.60;;;;;;;;;;5026682;28;20046;-86
2023/04/01 01:37:38;;;;;;;2.60;0.68;;;;;;;;;;5027578;28;20061;-84
2023/04/01 01:40:06;;;;;;;3.17;0.50;;;;;;;;;;5027923;28;20057;-86
2023/04/01 01:42:35;;;;;;;4.47;0.63;;;;;;;;;;5029214;28;20053;-85
2023/04/01 01:45:04;;;;;;;0.70;0.50;;;;;;;;;;5029366;28;20046;-85
2023/04/01 01:47:33;;;;;;;2.30;0.90;;;;;;;;;;5028446;28;20065;-86
2023/04/01 01:50:01;;;;;;;1.17;0.50;;;;;;;;;;5033705;28;20046;-86
2023/04/01 01:52:28;;;;;;;1.73;0.70;;;;;;;;;;5043976;28;20108;-85
2023/04/01 01:54:56;;;;;;;2.30;0.55;;;;;;;;;;5023766;28;20128;-86
2023/04/01 01:57:31;;;;;;;0.38;0.20;;;;;;;;;;5043266;28;20471;-85
2023/04/01 02:00:05;;;;;;;2.10;0.50;;;;;;;;;;5025266;28;20077;-85
2023/04/01 02:02:32;;;;;;;1.17;0.40;;;;;;;;;;5031997;23;20053;-77
2023/04/01 02:05:00;;;;;;;1.35;0.43;;;;;;;;;;5014476;28;20050;-82
2023/04/01 02:07:31;;;;;;;1.13;0.65;;;;;;;;;;4999036;28;20046;-81
2023/04/01 02:09:58;;;;;;;2.10;0.45;;;;;;;;;;5013916;28;20045;-81
2023/04/01 02:12:26;;;;;;;1.15;0.50;;;;;;;;;;4996923;28;20489;-81
2023/04/01 02:15:05;;;;;;;1.25;0.40;;;;;;;;;;5014561;28;20121;-80
2023/04/01 02:17:32;;;;;;;1.33;0.57;;;;;;;;;;5014702;28;20054;-80
2023/04/01 02:20:07;;;;;;;2.95;0.73;;;;;;;;;;5036132;28;20056;-80
2023/04/01 02:22:37;;;;;;;2.15;0.47;;;;;;;;;;5018554;28;20132;-80
2023/04/01 02:25:11;;;;;;;2.00;0.70;;;;;;;;;;5018679;28;20060;-81
2023/04/01 02:27:39;;;;;;;0.85;0.50;;;;;;;;;;5018567;28;20133;-80
2023/04/01 02:30:07;;;;;;;3.53;0.82;;;;;;;;;;5019772;28;20419;-81
2023/04/01 02:32:35;;;;;;;3.88;0.65;;;;;;;;;;5038884;28;20041;-80
2023/04/01 02:35:05;;;;;;;2.10;0.60;;;;;;;;;;5038752;28;20041;-82
2023/04/01 02:37:33;;;;;;;3.10;0.70;;;;;;;;;;5039635;28;20073;-81
2023/04/01 02:40:04;;;;;;;3.28;0.68;;;;;;;;;;5038566;28;20061;-81
2023/04/01 02:42:31;;;;;;;1.25;0.60;;;;;;;;;;5019308;28;20149;-80
2023/04/01 02:44:58;;;;;;;2.35;0.57;;;;;;;;;;5038272;28;20493;-81
2023/04/01 02:47:26;;;;;;;4.03;0.60;;;;;;;;;;5037765;28;20050;-83
2023/04/01 02:49:57;;;;;;;3.25;0.65;;;;;;;;;;5038141;28;20049;-80
2023/04/01 02:52:25;;;;;;;1.58;0.50;;;;;;;;;;5038401;28;20132;-81
2023/04/01 02:54:52;;;;;;;2.47;0.77;;;;;;;;;;5038757;28;20045;-81
2023/04/01 02:57:19;;;;;;;2.50;0.60;;;;;;;;;;5036721;28;20056;-77
2023/04/01 02:59:47;;;;;;;1.75;0.70;;;;;;;;;;5036360;28;20077;-77
2023/04/01 03:02:14;;;;;;;2.70;1.00;;;;;;;;;;5037079;28;20115;-81
2023/04/01 03:04:42;;;;;;;0.80;0.52;;;;;;;;;;5036793;28;20141;-81
2023/04/01 03:07:12;;;;;;;3.45;0.80;;;;;;;;;;5019365;28;20053;-81
2023/04/01 03:09:39;;;;;;;3.25;0.90;;;;;;;;;;5036873;28;20133;-80
2023/04/01 03:12:07;;;;;;;1.55;1.00;;;;;;;;;;5036605;28;20041;-81
2023/04/01 03:14:34;;;;;;;1.73;0.57;;;;;;;;;;5035831;28;20110;-81
2023/04/01 03:17:01;;;;;;;1.13;0.50;;;;;;;;;;5018796;28;20136;-80
2023/04/01 03:19:28;;;;;;;1.95;0.93;;;;;;;;;;5035922;28;20045;-82
2023/04/01 03:21:56;;;;;;;2.28;0.65;;;;;;;;;;5018194;28;20057;-80
2023/04/01 03:24:23;;;;;;;2.95;0.60;;;;;;;;;;5035413;28;20501;-80
2023/04/01 03:26:50;;;;;;;2.20;0.70;;;;;;;;;;5018090;28;20493;-80
2023/04/01 03:29:17;;;;;;;2.05;0.77;;;;;;;;;;5017948;28;20054;-80
2023/04/01 03:31:44;;;;;;;2.65;0.75;;;;;;;;;;5035804;28;20132;-80
2023/04/01 03:34:11;;;;;;;6.88;0.80;;;;;;;;;;5035217;28;20103;-80
2023/04/01 03:36:39;;;;;;;3.40;0.80;;;;;;;;;;5034966;28;20045;-80
2023/04/01 03:39:06;;;;;;;4.07;0.80;;;;;;;;;;5017389;28;20099;-80
2023/04/01 03:41:37;;;;;;;2.38;1.17;;;;;;;;;;5035008;28;20504;-80
2023/04/01 03:44:04;;;;;;;3.42;0.52;;;;;;;;;;5034650;28;20054;-81
2023/04/01 03:46:31;;;;;;;3.45;0.52;;;;;;;;;;5034725;28;20054;-82
2023/04/01 03:48:59;;;;;;;4.60;0.80;;;;;;;;;;5017173;28;20470;-80
2023/04/01 03:51:26;;;;;;;2.80;0.60;;;;;;;;;;5017049;28;20393;-80
2023/04/01 03:53:53;;;;;;;2.80;0.50;;;;;;;;;;5016848;28;20049;-80
2023/04/01 03:56:20;;;;;;;3.75;0.73;;;;;;;;;;5016965;28;20129;-79
2023/04/01 03:58:47;;;;;;;5.88;1.58;;;;;;;;;;5034256;28;20049;-79
2023/04/01 04:01:15;;;;;;;2.38;0.80;;;;;;;;;;5016889;28;20045;-79
2023/04/01 04:03:43;;;;;;;2.40;0.70;;;;;;;;;;5016536;28;20090;-80
2023/04/01 04:06:12;;;;;;;1.17;0.73;;;;;;;;;;5022283;28;20059;-80
2023/04/01 04:08:39;;;;;;;2.50;0.60;;;;;;;;;;5021225;28;20120;-81
2023/04/01 04:11:07;;;;;;;2.08;0.50;;;;;;;;;;5022053;28;20052;-80
2023/04/01 04:13:35;;;;;;;1.88;0.68;;;;;;;;;;5020146;28;20051;-78
2023/04/01 04:16:03;;;;;;;2.90;0.50;;;;;;;;;;5036179;28;20504;-78
2023/04/01 04:18:30;;;;;;;2.05;0.38;;;;;;;;;;5018859;28;20052;-78
2023/04/01 04:20:57;;;;;;;1.75;0.40;;;;;;;;;;5036077;28;20050;-78
2023/04/01 04:23:25;;;;;;;3.17;0.60;;;;;;;;;;5035465;28;20052;-78
2023/04/01 04:25:56;;;;;;;2.38;0.50;;;;;;;;;;5018499;28;20072;-80
2023/04/01 04:28:23;;;;;;;1.45;0.50;;;;;;;;;;5036366;28;20064;-80
2023/04/01 04:30:50;;;;;;;2.28;0.60;;;;;;;;;;5017055;28;20092;-83
2023/04/01 04:33:18;;;;;;;3.75;0.75;;;;;;;;;;5036224;28;20088;-80
2023/04/01 04:35:45;;;;;;;1.27;0.50;;;;;;;;;;5034695;28;20045;-80
2023/04/01 04:38:12;;;;;;;0.77;0.40;;;;;;;;;;5034987;28;20048;-78
2023/04/01 04:40:40;;;;;;;2.40;0.20;;;;;;;;;;5016143;28;20543;-80
2023/04/01 04:43:07;;;;;;;1.70;0.68;;;;;;;;;;5017278;28;20544;-79
2023/04/01 04:45:34;;;;;;;3.13;0.60;;;;;;;;;;5016803;28;20049;-80
2023/04/01 04:48:02;;;;;;;2.40;0.47;;;;;;;;;;5034090;28;20057;-80
2023/04/01 04:50:29;;;;;;;1.58;0.57;;;;;;;;;;5034367;28;20470;-81
2023/04/01 04:52:56;;;;;;;0.60;0.50;;;;;;;;;;5016401;28;20055;-81
2023/04/01 04:55:23;;;;;;;1.48;0.57;;;;;;;;;;5016686;28;20517;-80
2023/04/01 04:57:50;;;;;;;1.80;0.43;;;;;;;;;;5016192;28;20072;-80
2023/04/01 05:00:18;;;;;;;3.72;0.60;;;;;;;;;;5016087;28;20583;-80
2023/04/01 05:02:45;;;;;;;1.25;0.40;;;;;;;;;;5033382;28;20056;-80
2023/04/01 05:05:12;;;;;;;2.13;0.40;;;;;;;;;;5016461;28;20065;-82
2023/04/01 05:07:40;;;;;;;0.57;0.40;;;;;;;;;;5016166;28;20056;-82
2023/04/01 05:10:07;;;;;;;2.17;0.77;;;;;;;;;;5033781;28;20530;-80
2023/04/01 05:12:37;;;;;;;3.15;0.70;;;;;;;;;;5035709;28;20055;-83
2023/04/01 05:15:05;;;;;;;2.33;0.80;;;;;;;;;;5035770;28;20081;-81
2023/04/01 05:17:32;;;;;;;6.18;0.80;;;;;;;;;;5037355;28;20045;-81
2023/04/01 05:19:59;;;;;;;1.42;0.52;;;;;;;;;;5037774;28;20057;-84
2023/04/01 05:22:27;;;;;;;0.77;0.40;;;;;;;;;;5019996;28;20059;-82
2023/04/01 05:24:54;;;;;;;3.58;0.70;;;;;;;;;;5019285;28;20117;-81
2023/04/01 05:27:21;;;;;;;3.20;0.50;;;;;;;;;;5018612;28;20128;-81
2023/04/01 05:29:48;;;;;;;1.63;0.50;;;;;;;;;;5018486;28;20060;-81
2023/04/01 05:32:15;;;;;;;4.32;1.10;;;;;;;;;;5018776;28;20144;-81
2023/04/01 05:34:43;;;;;;;1.60;0.50;;;;;;;;;;5018127;28;20531;-81
2023/04/01 05:37:10;;;;;;;3.97;0.88;;;;;;;;;;5035898;28;20144;-85
2023/04/01 05:39:38;;;;;;;2.60;0.65;;;;;;;;;;5017956;28;20053;-81
2023/04/01 05:42:08;;;;;;;4.65;0.70;;;;;;;;;;5016962;28;20405;-78
2023/04/01 05:44:36;;;;;;;3.08;0.55;;;;;;;;;;5017208;28;20488;-81
2023/04/01 05:47:04;;;;;;;2.47;0.50;;;;;;;;;;5033753;28;20045;-80
2023/04/01 05:49:31;;;;;;;1.77;0.75;;;;;;;;;;5035346;28;20100;-80
2023/04/01 05:51:58;;;;;;;1.90;0.55;;;;;;;;;;5016313;28;20103;-80
2023/04/01 05:54:25;;;;;;;1.13;0.50;;;;;;;;;;5033248;28;20076;-80
2023/04/01 05:56:52;;;;;;;4.22;0.60;;;;;;;;;;5016003;28;20148;-80
2023/04/01 05:59:20;;;;;;;1.10;0.47;;;;;;;;;;5016215;28;20077;-81
2023/04/01 06:01:47;;;;;;;3.58;1.13;;;;;;;;;;5033306;28;20045;-81
2023/04/01 06:04:15;;;;;;;2.38;0.75;;;;;;;;;;5012101;28;20053;-81
2023/04/01 06:06:43;;;;;;;2.60;0.40;;;;;;;;;;5012904;28;20136;-81
2023/04/01 06:09:13;;;;;;;3.72;0.55;;;;;;;;;;5013486;28;20057;-80
2023/04/01 06:11:47;;;;;;;1.75;0.52;;;;;;;;;;5017511;28;20052;-81
2023/04/01 06:14:14;;;;;;;;;;;;;;;;;;5017751;28;20049;-82
2023/04/01 06:17:17;;;;;;;2.80;0.50;;;;;;;;;;5014457;28;20029;-82
2023/04/01 06:19:47;;;;;;;4.40;0.73;;;;;;;;;;4918427;29;20506;-81
2023/04/01 06:22:14;;;;;;;3.42;0.60;;;;;;;;;;5001452;28;20052;-82
2023/04/01 06:24:45;;;;;;;2.53;0.80;;;;;;;;;;5014958;28;20084;-85
2023/04/01 06:27:20;;;;;;;2.03;0.40;;;;;;;;;;5014652;28;20052;-82
2023/04/01 06:29:54;;;;;;;1.75;0.60;;;;;;;;;;5016396;28;20972;-82
2023/04/01 06:32:21;;;;;;;1.60;0.40;;;;;;;;;;5016360;28;20061;-83
2023/04/01 06:34:59;;;;;;;2.28;0.60;;;;;;;;;;5014435;28;20050;-81
2023/04/01 06:37:45;;;;;;;1.75;0.40;;;;;;;;;;5016334;28;20078;-81
2023/04/01 06:40:25;;;;;;;2.58;0.60;;;;;;;;;;5015283;28;20056;-82
2023/04/01 06:43:04;;;;;;;3.90;0.68;;;;;;;;;;5015327;28;20060;-81
2023/04/01 06:45:42;;;;;;;4.78;1.02;;;;;;;;;;5015044;28;20137;-81
2023/04/01 06:48:18;;;;;;;1.02;0.32;;;;;;;;;;5013033;28;20128;-81
2023/04/01 06:50:45;;;;;;;1.92;0.45;;;;;;;;;;5013458;28;20101;-81
2023/04/01 06:53:27;;;;;;;1.60;0.57;;;;;;;;;;5013023;28;20046;-84
2023/04/01 06:55:56;;;;;;;1.70;0.90;;;;;;;;;;5013494;28;20429;-81
2023/04/01 06:58:25;;;;;;;2.08;0.40;;;;;;;;;;5012073;28;20061;-81
2023/04/01 07:00:55;;;;;;;4.05;0.57;;;;;;;;;;5012130;28;20049;-81
2023/04/01 07:03:22;;;;;;;1.13;0.40;;;;;;;;;;5012168;28;20060;-81
2023/04/01 07:05:50;;;;;;;2.03;0.43;;;;;;;;;;5016339;28;20576;-81
2023/04/01 07:08:27;;;;;;;2.65;0.60;;;;;;;;;;5016670;28;20050;-83
2023/04/01 07:10:59;;;;;;;1.95;0.30;;;;;;;;;;5016927;28;20065;-81
2023/04/01 07:13:45;;;;;;;1.48;0.30;;;;;;;;;;5016941;28;20045;-81
2023/04/01 07:16:21;;;;;;;2.00;0.40;;;;;;;;;;5014459;28;20042;-83
2023/04/01 07:19:06;;;;;;;1.20;0.43;;;;;;;;;;5014170;28;20050;-81
2023/04/01 07:21:40;;;;;;;1.20;0.52;;;;;;;;;;5014486;28;20053;-80
2023/04/01 07:24:27;;;;;;;0.22;0.22;;;;;;;;;;5015366;28;20449;-82
2023/04/01 07:26:55;;;;;;;3.10;0.32;;;;;;;;;;5015823;28;20096;-82
2023/04/01 07:29:23;;;;;;;2.60;2.20;;;;;;;;;;5015433;28;20085;-81
2023/04/01 07:32:09;;;;;;;1.92;0.68;;;;;;;;;;5014313;28;20052;-81
2023/04/01 07:34:41;;;;;;;0.73;0.30;;;;;;;;;;5015206;28;20129;-82
2023/04/01 07:37:20;;;;;;;0.73;0.35;;;;;;;;;;5014453;28;20049;-82
2023/04/01 07:40:07;;;;;;;0.43;0.25;;;;;;;;;;5015235;28;20504;-81
2023/04/01 07:42:50;;;;;;;2.55;0.50;;;;;;;;;;5014967;28;20390;-81
2023/04/01 07:45:21;;;;;;;1.25;0.30;;;;;;;;;;5015145;28;20137;-82
2023/04/01 07:48:00;;;;;;;1.30;0.38;;;;;;;;;;5016546;28;20054;-79
2023/04/01 07:50:33;;;;;;;1.83;0.40;;;;;;;;;;5017718;28;20042;-83
2023/04/01 07:53:07;;;;;;;1.35;0.30;;;;;;;;;;5018038;28;20042;-82
2023/04/01 07:55:46;;;;;;;1.85;0.20;;;;;;;;;;5017066;28;20416;-79
2023/04/01 07:58:35;;;;;;;1.65;0.30;;;;;;;;;;5017236;28;20107;-81
2023/04/01 08:01:03;;;;;;;1.83;0.50;;;;;;;;;;5017579;28;20088;-81
2023/04/01 08:03:49;;;;;;;1.40;0.88;;;;;;;;;;5045945;23;20043;-85
2023/04/01 08:06:19;;;;;;;1.50;0.30;;;;;;;;;;5001042;28;20047;-86
2023/04/01 08:08:57;;;;;;;1.63;0.35;;;;;;;;;;4983459;28;20050;-87
2023/04/01 08:11:43;;;;;;;1.55;0.40;;;;;;;;;;4982729;28;20051;-85
2023/04/01 08:14:36;;;;;;;2.33;0.28;;;;;;;;;;4991067;28;20125;-87
2023/04/01 08:17:22;;;;;;;0.70;0.20;;;;;;;;;;4975799;28;20050;-86
2023/04/01 08:19:56;;;;;;;0.68;0.28;;;;;;;;;;5018126;28;20068;-86
2023/04/01 08:22:23;;;;;;;;;;;;;;;;;;5019997;28;20069;-86
2023/04/01 08:24:52;;;;;;;0.60;0.30;;;;;;;;;;5002327;28;19932;-85
2023/04/01 08:27:26;;;;;;;0.55;0.30;;;;;;;;;;5002332;28;20050;-85
2023/04/01 08:29:58;;;;;;;2.15;0.40;;;;;;;;;;5020234;28;20053;-86
2023/04/01 08:32:31;;;;;;;1.02;0.30;;;;;;;;;;5002121;28;20046;-85
2023/04/01 08:35:07;;;;;;;0.40;0.30;;;;;;;;;;5014747;28;20050;-85
2023/04/01 08:37:37;;;;;;;0.30;0.20;;;;;;;;;;5000243;28;20108;-85
2023/04/01 08:40:26;;;;;;;0.32;0.10;;;;;;;;;;5002940;28;20073;-87
2023/04/01 08:43:05;;;;;;;1.90;0.40;;;;;;;;;;5022264;28;20109;-84
2023/04/01 08:45:45;;;;;;;1.17;0.20;;;;;;;;;;5006543;28;20057;-87
2023/04/01 08:48:31;;;;;;;0.63;0.38;;;;;;;;;;5007661;28;20518;-86
2023/04/01 08:51:02;;;;;;;0.73;0.38;;;;;;;;;;5003759;28;20132;-86
2023/04/01 08:53:32;;;;;;;;;;;;;;;;;;5025233;28;20046;-85
2023/04/01 08:56:02;;;;;;;1.75;0.22;;;;;;;;;;5024581;28;19928;-87
2023/04/01 08:58:43;;;;;;;2.20;0.40;;;;;;;;;;5009497;28;20140;-85
2023/04/01 09:01:14;;;;;;;1.40;0.47;;;;;;;;;;5004451;28;20050;-86
2023/04/01 09:03:45;;;;;;;1.40;0.20;;;;;;;;;;5001738;28;20424;-87
2023/04/01 09:06:31;;;;;;;0.57;0.20;;;;;;;;;;5000644;28;20076;-86
2023/04/01 09:09:17;;;;;;;0.98;0.30;;;;;;;;;;5000826;28;20105;-86
2023/04/01 09:11:53;;;;;;;0.57;0.30;;;;;;;;;;5000600;28;20057;-86
2023/04/01 09:14:41;;;;;;;0.63;0.30;;;;;;;;;;5018370;28;20584;-86
2023/04/01 09:17:18;;;;;;;0.80;0.40;;;;;;;;;;5000049;28;20469;-86
2023/04/01 09:19:51;;;;;;;1.48;0.70;;;;;;;;;;5000737;28;20057;-86
2023/04/01 09:22:21;;;;;;;0.30;0.10;;;;;;;;;;5000565;28;20488;-86
2023/04/01 09:25:06;;;;;;;0.57;0.40;;;;;;;;;;5016822;28;20046;-86
2023/04/01 09:27:57;;;;;;;0.30;0.20;;;;;;;;;;4999484;28;20050;-85
2023/04/01 09:30:43;;;;;;;1.02;0.25;;;;;;;;;;5007438;28;20057;-86
2023/04/01 09:33:27;;;;;;;7.93;0.70;;;;;;;;;;4998609;28;20084;-86
2023/04/01 09:36:05;;;;;;;0.75;0.20;;;;;;;;;;4999182;28;20420;-86
2023/04/01 09:38:45;;;;;;;0.10;0.10;;;;;;;;;;5017187;28;20109;-85
2023/04/01 09:41:31;;;;;;;0.65;0.28;;;;;;;;;;4998788;28;20424;-85
2023/04/01 09:44:12;;;;;;;1.60;0.20;;;;;;;;;;4998943;28;20060;-87
2023/04/01 09:46:49;;;;;;;0.88;0.17;;;;;;;;;;4999268;28;20060;-86
2023/04/01 09:49:19;;;;;;;0.75;0.20;;;;;;;;;;4999071;28;20041;-85
2023/04/01 09:51:51;;;;;;;1.45;0.20;;;;;;;;;;5016581;28;20041;-83
2023/04/01 09:54:28;;;;;;;0.50;0.20;;;;;;;;;;4998490;28;20133;-85
2023/04/01 09:57:13;;;;;;;0.40;0.20;;;;;;;;;;5015918;28;20497;-85
2023/04/01 09:59:57;;;;;;;1.65;0.35;;;;;;;;;;4999204;28;20050;-85
2023/04/01 10:02:43;;;;;;;0.50;0.30;;;;;;;;;;5016270;28;20057;-85
2023/04/01 10:05:28;;;;;;;0.50;0.10;;;;;;;;;;5015192;28;20065;-85
2023/04/01 10:08:14;;;;;;;2.05;0.28;;;;;;;;;;5016809;28;20042;-84
2023/04/01 10:10:41;;;;;;;0.70;0.17;;;;;;;;;;5014896;28;20045;-85
2023/04/01 10:13:26;;;;;;;0.80;0.10;;;;;;;;;;5015191;28;20077;-85
2023/04/01 10:16:08;;;;;;;0.65;0.15;;;;;;;;;;5015104;28;20056;-86
2023/04/01 10:18:54;;;;;;;0.10;0.10;;;;;;;;;;5032527;28;20053;-85
2023/04/01 10:21:40;;;;;;;0.25;0.10;;;;;;;;;;5032740;28;20136;-85
2023/04/01 10:24:07;;;;;;;0.55;0.10;;;;;;;;;;5032683;28;20115;-85
2023/04/01 10:26:35;;;;;;;1.15;0.15;;;;;;;;;;5015108;28;20496;-85
2023/04/01 10:29:20;;;;;;;0.63;0.22;;;;;;;;;;5015088;28;20136;-85
2023/04/01 10:32:03;;;;;;;0.15;0.10;;;;;;;;;;5015187;28;20045;-85
2023/04/01 10:34:50;;;;;;;0.20;0.10;;;;;;;;;;5014760;28;20547;-85
2023/04/01 10:37:37;;;;;;;0.47;0.00;;;;;;;;;;5015299;28;20072;-84
2023/04/01 10:40:25;;;;;;;0.50;0.03;;;;;;;;;;5017905;28;20163;-85
2023/04/01 10:43:11;;;;;;;1.33;0.13;;;;;;;;;;5018797;28;20049;-85
2023/04/01 10:45:44;;;;;;;1.35;0.10;;;;;;;;;;5019182;28;20056;-85
2023/04/01 10:48:18;;;;;;;0.35;0.15;;;;;;;;;;5019332;28;20059;-84
2023/04/01 10:51:06;;;;;;;0.52;0.40;;;;;;;;;;5019492;28;20050;-85
2023/04/01 10:53:40;;;;;;;0.20;0.20;;;;;;;;;;5037189;28;20049;-85
2023/04/01 10:56:18;;;;;;;0.40;0.40;;;;;;;;;;5019965;28;20049;-84
2023/04/01 10:58:48;;;;;;;0.73;0.10;;;;;;;;;;5019104;28;20515;-85
2023/04/01 11:01:18;;;;;;;0.57;0.40;;;;;;;;;;5037128;28;20058;-85
2023/04/01 11:04:04;;;;;;;0.95;0.40;;;;;;;;;;5021227;28;20581;-86
2023/04/01 11:06:50;;;;;;;0.40;0.10;;;;;;;;;;5024594;28;20077;-86
2023/04/01 11:09:26;;;;;;;0.10;0.08;;;;;;;;;;5023965;28;20046;-85
2023/04/01 11:12:12;;;;;;;0.17;0.15;;;;;;;;;;5023507;28;20041;-86
2023/04/01 11:15:06;;;;;;;0.57;0.10;;;;;;;;;;5041016;28;20052;-85
2023/04/01 11:17:55;;;;;;;0.70;0.22;;;;;;;;;;5041045;28;20428;-86
2023/04/01 11:20:36;;;;;;;1.20;0.30;;;;;;;;;;5040258;28;20424;-86
2023/04/01 11:23:24;;;;;;;0.10;0.00;;;;;;;;;;5012288;28;20052;-87
2023/04/01 11:25:56;;;;;;;0.10;0.10;;;;;;;;;;5021375;28;20500;-86
2023/04/01 11:28:28;;;;;;;0.30;0.20;;;;;;;;;;5021878;28;20045;-85
2023/04/01 11:30:58;;;;;;;0.45;0.25;;;;;;;;;;5021501;28;20144;-86
2023/04/01 11:33:26;;;;;;;0.10;0.10;;;;;;;;;;5038797;28;20092;-86
2023/04/01 11:35:58;;;;;;;0.73;0.13;;;;;;;;;;5020922;28;20052;-85
2023/04/01 11:38:35;;;;;;;1.05;0.35;;;;;;;;;;5021862;28;20129;-85
2023/04/01 11:41:08;;;;;;;0.28;0.13;;;;;;;;;;5021557;28;20136;-84
2023/04/01 11:43:48;;;;;;;0.50;0.10;;;;;;;;;;5035415;28;20045;-85
2023/04/01 11:46:17;;;;;;;1.25;0.70;;;;;;;;;;5017755;28;20045;-83
2023/04/01 11:48:52;;;;;;;0.40;0.30;;;;;;;;;;5017060;28;20488;-85
2023/04/01 11:51:33;;;;;;;0.20;0.13;;;;;;;;;;5017260;28;20133;-85
2023/04/01 11:54:07;;;;;;;0.38;0.20;;;;;;;;;;5017701;28;20124;-84
2023/04/01 11:57:00;;;;;;;0.28;0.08;;;;;;;;;;5017887;28;20081;-85
2023/04/01 11:59:27;;;;;;;0.00;0.00;;;;;;;;;;5017786;28;20099;-84
2023/04/01 12:01:54;;;;;;;0.75;0.10;;;;;;;;;;5017572;28;20059;-83
2023/04/01 12:04:34;;;;;;;0.03;0.00;;;;;;;;;;5035165;28;20068;-85
2023/04/01 12:07:14;;;;;;;0.88;0.10;;;;;;;;;;5018051;28;20510;-85
2023/04/01 12:09:47;;;;;;;0.40;0.40;;;;;;;;;;5017889;28;20046;-86
2023/04/01 12:12:17;;;;;;;0.10;0.10;;;;;;;;;;5018104;28;20515;-86
2023/04/01 12:14:53;;;;;;;0.52;0.17;;;;;;;;;;5035169;28;20050;-85
2023/04/01 12:17:39;;;;;;;0.00;0.00;;;;;;;;;;5018031;28;20511;-85
2023/04/01 12:20:12;;;;;;;0.05;0.05;;;;;;;;;;5036452;28;20049;-85
2023/04/01 12:22:40;;;;;;;0.50;0.10;;;;;;;;;;5019958;28;20057;-85
2023/04/01 12:25:25;;;;;;;0.60;0.05;;;;;;;;;;5036513;28;20049;-86
2023/04/01 12:28:02;;;;;;;0.88;0.25;;;;;;;;;;5018220;28;20511;-86
2023/04/01 12:30:29;;;;;;;0.25;0.13;;;;;;;;;;5035986;28;20065;-82
2023/04/01 12:33:02;;;;;;;0.10;0.00;;;;;;;;;;5036418;28;20152;-85
2023/04/01 12:35:37;;;;;;;0.28;0.03;;;;;;;;;;5019181;28;20069;-86
2023/04/01 12:38:24;;;;;;;0.20;0.20;;;;;;;;;;5018575;28;20462;-86
2023/04/01 12:41:10;;;;;;;0.00;0.00;;;;;;;;;;5018744;28;20057;-85
2023/04/01 12:43:53;;;;;;;0.25;0.00;;;;;;;;;;5023202;28;20056;-86
2023/04/01 12:46:32;;;;;;;0.10;0.10;;;;;;;;;;5022010;28;20478;-85
2023/04/01 12:48:59;;;;;;;0.15;0.03;;;;;;;;;;5021629;28;20060;-86
2023/04/01 12:51:30;;;;;;;0.20;0.20;;;;;;;;;;5021952;28;20045;-84
2023/04/01 12:53:57;;;;;;;0.65;0.10;;;;;;;;;;5020996;28;20466;-86
2023/04/01 12:56:37;;;;;;;1.13;0.00;;;;;;;;;;5020579;28;20049;-86
2023/04/01 12:59:18;;;;;;;0.00;0.00;;;;;;;;;;5020188;28;20082;-82
2023/04/01 13:01:55;;;;;;;0.30;0.08;;;;;;;;;;5020510;28;20136;-83
2023/04/01 13:04:41;;;;;;;0.13;0.10;;;;;;;;;;5019661;28;20063;-85
2023/04/01 13:07:14;;;;;;;0.10;0.10;;;;;;;;;;5019976;28;20510;-82
2023/04/01 13:10:00;;;;;;;0.00;0.00;;;;;;;;;;5038107;28;20049;-85
2023/04/01 13:12:27;;;;;;;1.17;0.17;;;;;;;;;;5041121;28;20045;-86
2023/04/01 13:15:06;;;;;;;0.55;0.10;;;;;;;;;;5021968;28;20133;-86
2023/04/01 13:17:52;;;;;;;0.10;0.00;;;;;;;;;;5029073;28;20053;-85
2023/04/01 13:20:42;;;;;;;0.08;0.08;;;;;;;;;;5035366;28;20053;-85
2023/04/01 13:23:12;;;;;;;0.63;0.10;;;;;;;;;;5028060;28;20050;-85
2023/04/01 13:25:45;;;;;;;0.03;0.03;;;;;;;;;;5021635;28;20103;-86
2023/04/01 13:28:42;;;;;;;0.10;0.10;;;;;;;;;;5021060;28;20051;-86
2023/04/01 13:31:23;;;;;;;0.10;0.10;;;;;;;;;;4968557;28;20116;-86
2023/04/01 13:33:53;;;;;;;0.10;0.10;;;;;;;;;;5021372;28;20107;-86
2023/04/01 13:36:29;;;;;;;0.65;0.17;;;;;;;;;;5039211;28;20109;-85
2023/04/01 13:38:58;;;;;;;0.10;0.10;;;;;;;;;;5021049;28;20105;-86
2023/04/01 13:41:47;;;;;;;0.10;0.10;;;;;;;;;;5021147;28;20068;-86
2023/04/01 13:44:17;;;;;;;0.32;0.10;;;;;;;;;;5022505;28;20049;-85
2023/04/01 13:47:04;;;;;;;3.13;0.17;;;;;;;;;;5021396;28;20053;-86
2023/04/01 13:49:37;;;;;;;0.38;0.10;;;;;;;;;;5012154;28;20470;-85
2023/04/01 13:52:26;;;;;;;0.52;0.17;;;;;;;;;;5021685;28;20045;-85
2023/04/01 13:54:53;;;;;;;0.10;0.10;;;;;;;;;;5021692;28;20475;-86
2023/04/01 13:57:34;;;;;;;0.20;0.20;;;;;;;;;;5022123;28;20042;-85
2023/04/01 14:00:16;;;;;;;0.20;0.13;;;;;;;;;;5038166;28;20060;-85
2023/04/01 14:02:58;;;;;;;0.10;0.10;;;;;;;;;;5022324;28;20049;-85
2023/04/01 14:05:26;;;;;;;0.10;0.10;;;;;;;;;;5087582;23;20127;-81
2023/04/01 14:08:18;;;;;;;1.55;0.20;;;;;;;;;;5072303;28;20422;-80
2023/04/01 14:11:08;;;;;;;0.00;0.00;;;;;;;;;;5054213;28;20048;-80
2023/04/01 14:13:52;;;;;;;0.10;0.10;;;;;;;;;;5018155;28;20059;-81
2023/04/01 14:16:28;;;;;;;3.97;0.30;;;;;;;;;;5076210;28;20059;-80
2023/04/01 14:19:12;;;;;;;0.25;0.25;;;;;;;;;;5076173;28;20574;-80
2023/04/01 14:22:00;;;;;;;0.20;0.20;;;;;;;;;;5075937;28;20049;-81
2023/04/01 14:24:45;;;;;;;0.20;0.10;;;;;;;;;;5075944;28;20059;-80
2023/04/01 14:27:31;;;;;;;0.05;0.05;;;;;;;;;;5058106;28;20048;-81
2023/04/01 14:30:14;;;;;;;0.40;0.20;;;;;;;;;;5058123;28;20054;-81
2023/04/01 14:32:53;;;;;;;0.47;0.45;;;;;;;;;;5075850;28;20049;-80
2023/04/01 14:35:39;;;;;;;0.30;0.30;;;;;;;;;;5075530;28;20110;-80
2023/04/01 14:38:09;;;;;;;1.15;0.90;;;;;;;;;;5075938;28;20066;-80
2023/04/01 14:40:55;;;;;;;0.22;0.10;;;;;;;;;;5075905;28;20054;-81
2023/04/01 14:43:41;;;;;;;0.10;0.10;;;;;;;;;;5075891;28;20044;-81
2023/04/01 14:46:18;;;;;;;0.45;0.30;;;;;;;;;;5076052;28;20044;-80
2023/04/01 14:48:54;;;;;;;0.00;0.00;;;;;;;;;;5075469;28;20495;-80
2023/04/01 14:51:21;;;;;;;0.20;0.10;;;;;;;;;;5075481;28;20048;-81
2023/04/01 14:53:57;;;;;;;0.20;0.10;;;;;;;;;;5057666;28;20135;-79
2023/04/01 14:56:56;;;;;;;0.10;0.10;;;;;;;;;;5076502;28;20040;-80
2023/04/01 14:59:23;;;;;;;0.25;0.20;;;;;;;;;;5023560;28;20404;-82
2023/04/01 15:01:57;;;;;;;0.65;0.10;;;;;;;;;;5059148;28;20052;-82
2023/04/01 15:04:42;;;;;;;1.50;0.10;;;;;;;;;;5076636;28;20418;-81
2023/04/01 15:07:22;;;;;;;1.20;0.10;;;;;;;;;;5059573;28;20481;-81
2023/04/01 15:09:52;;;;;;;0.20;0.10;;;;;;;;;;5059322;28;20044;-80
2023/04/01 15:12:44;;;;;;;0.20;0.20;;;;;;;;;;5077146;28;20048;-81
2023/04/01 15:15:17;;;;;;;0.52;0.32;;;;;;;;;;5077478;28;20054;-81
2023/04/01 15:17:44;;;;;;;0.10;0.10;;;;;;;;;;5076875;28;20087;-82
2023/04/01 15:20:20;;;;;;;0.00;0.00;;;;;;;;;;5076323;28;20127;-81
2023/04/01 15:23:07;;;;;;;1.20;0.08;;;;;;;;;;5077075;28;20131;-81
2023/04/01 15:25:43;;;;;;;0.20;0.17;;;;;;;;;;5075763;28;20052;-81
2023/04/01 15:28:19;;;;;;;1.75;0.30;;;;;;;;;;5058302;28;20570;-81